^^
Meteo Knjazevac Station Historical Data
Daily Summary for June 25, 2021 Units:  Both    English   Metric
Daily Weekly Monthly Yearly Custom
  High: Low: Average:
Temperature: 90.1 °F /  32.3 °C 54.5 °F /  12.5 °C 73 °F /  22.8 °C
Dew Point: 70.7 °F /  21.5 °C 53.4 °F /  11.9 °C 61.9 °F /  16.6 °C
Humidity: 99% 38% 72%
Wind Speed: 7mph /  11.3km/h - 1.7mph /  2.7km/h
Wind Gust: 15mph /  24.1km/h - -
Wind- - SSW
Pressure: 30.12 in /  1019.9 hPa 30.04 in /  1017.2 hPa -
Precipitation: 0.00 in /  0 mm    
Historical Graphs
 
 
Tabular Data for June 25, 2021
Time Temperature Dew Point Pressure Wind Wind Speed Wind Gust Humidity Rainfall Rate (Hourly) solar Conditions
00:00 62.7 °F /  17.1 °C 59.1 °F /  15.1 °C 30.09in /  1018.8hPa West 1mph /  1.6km/h 3mph /  4.8km/h 88% 0.00in /  0mm 0 W/m2
00:10 62.4 °F /  16.9 °C 59.1 °F /  15.1 °C 30.09in /  1018.8hPa West 1mph /  1.6km/h 2mph /  3.2km/h 89% 0.00in /  0mm 0 W/m2
00:20 62.1 °F /  16.7 °C 58.8 °F /  14.9 °C 30.09in /  1018.8hPa Calm   2mph /  3.2km/h 89% 0.00in /  0mm 0 W/m2
00:30 61.9 °F /  16.6 °C 58.6 °F /  14.8 °C 30.09in /  1018.8hPa West 1mph /  1.6km/h 3mph /  4.8km/h 89% 0.00in /  0mm 0 W/m2
00:40 61.7 °F /  16.5 °C 58.7 °F /  14.8 °C 30.09in /  1018.8hPa Calm   3mph /  4.8km/h 90% 0.00in /  0mm 0 W/m2
00:50 61.3 °F /  16.3 °C 58.4 °F /  14.7 °C 30.09in /  1018.8hPa Calm   2mph /  3.2km/h 90% 0.00in /  0mm 0 W/m2
01:00 61 °F /  16.1 °C 58 °F /  14.4 °C 30.09in /  1018.8hPa Calm   1mph /  1.6km/h 90% 0.00in /  0mm 0 W/m2
01:10 60.6 °F /  15.9 °C 57.7 °F /  14.3 °C 30.09in /  1018.8hPa WNW 1mph /  1.6km/h 2mph /  3.2km/h 90% 0.00in /  0mm 0 W/m2
01:20 60.3 °F /  15.7 °C 57.6 °F /  14.2 °C 30.10in /  1019.2hPa Calm   2mph /  3.2km/h 91% 0.00in /  0mm 0 W/m2
01:30 59.9 °F /  15.5 °C 57.3 °F /  14.1 °C 30.09in /  1018.8hPa Calm   2mph /  3.2km/h 91% 0.00in /  0mm 0 W/m2
01:40 59.5 °F /  15.3 °C 56.9 °F /  13.8 °C 30.09in /  1018.8hPa Calm   2mph /  3.2km/h 91% 0.00in /  0mm 0 W/m2
01:50 59.2 °F /  15.1 °C 57.2 °F /  14 °C 30.09in /  1018.8hPa WNW 2mph /  3.2km/h 5mph /  8km/h 93% 0.00in /  0mm 0 W/m2
02:00 59 °F /  15 °C 57 °F /  13.9 °C 30.09in /  1018.8hPa West 1mph /  1.6km/h 5mph /  8km/h 93% 0.00in /  0mm 0 W/m2
02:10 58.6 °F /  14.8 °C 56.9 °F /  13.8 °C 30.09in /  1018.8hPa West 3mph /  4.8km/h 7mph /  11.3km/h 94% 0.00in /  0mm 0 W/m2
02:20 58.3 °F /  14.6 °C 56.6 °F /  13.7 °C 30.09in /  1018.8hPa WSW 2mph /  3.2km/h 6mph /  9.7km/h 94% 0.00in /  0mm 0 W/m2
02:30 57.9 °F /  14.4 °C 56.2 °F /  13.4 °C 30.09in /  1018.8hPa West 2mph /  3.2km/h 6mph /  9.7km/h 94% 0.00in /  0mm 0 W/m2
02:40 57.9 °F /  14.4 °C 56.2 °F /  13.4 °C 30.09in /  1018.8hPa West 2mph /  3.2km/h 6mph /  9.7km/h 94% 0.00in /  0mm 0 W/m2
02:50 57.8 °F /  14.3 °C 56.1 °F /  13.4 °C 30.09in /  1018.8hPa WSW 1mph /  1.6km/h 3mph /  4.8km/h 94% 0.00in /  0mm 0 W/m2
03:00 57.7 °F /  14.3 °C 56 °F /  13.3 °C 30.09in /  1018.8hPa West 2mph /  3.2km/h 2mph /  3.2km/h 94% 0.00in /  0mm 0 W/m2
03:10 57.4 °F /  14.1 °C 55.7 °F /  13.2 °C 30.08in /  1018.5hPa WSW 1mph /  1.6km/h 2mph /  3.2km/h 94% 0.00in /  0mm 0 W/m2
03:20 57.4 °F /  14.1 °C 55.7 °F /  13.2 °C 30.08in /  1018.5hPa West 1mph /  1.6km/h 2mph /  3.2km/h 94% 0.00in /  0mm 0 W/m2
03:30 57 °F /  13.9 °C 55.3 °F /  12.9 °C 30.09in /  1018.8hPa WNW 1mph /  1.6km/h 2mph /  3.2km/h 94% 0.00in /  0mm 0 W/m2
03:40 56.8 °F /  13.8 °C 55.4 °F /  13 °C 30.08in /  1018.5hPa Calm   2mph /  3.2km/h 95% 0.00in /  0mm 0 W/m2
03:50 56.5 °F /  13.6 °C 54.8 °F /  12.7 °C 30.08in /  1018.5hPa Calm   2mph /  3.2km/h 94% 0.00in /  0mm 0 W/m2
04:00 56.3 °F /  13.5 °C 54.9 °F /  12.7 °C 30.08in /  1018.5hPa WNW 2mph /  3.2km/h 3mph /  4.8km/h 95% 0.00in /  0mm 0 W/m2
04:10 55.9 °F /  13.3 °C 54.5 °F /  12.5 °C 30.08in /  1018.5hPa WNW 2mph /  3.2km/h 5mph /  8km/h 95% 0.00in /  0mm 0 W/m2
04:20 55.9 °F /  13.3 °C 54.8 °F /  12.7 °C 30.09in /  1018.8hPa West 2mph /  3.2km/h 5mph /  8km/h 96% 0.00in /  0mm 0 W/m2
04:30 55.6 °F /  13.1 °C 54.5 °F /  12.5 °C 30.10in /  1019.2hPa West 3mph /  4.8km/h 6mph /  9.7km/h 96% 0.00in /  0mm 0 W/m2
04:40 55.6 °F /  13.1 °C 54.2 °F /  12.3 °C 30.10in /  1019.2hPa Calm   5mph /  8km/h 95% 0.00in /  0mm 0 W/m2
04:50 55.2 °F /  12.9 °C 53.8 °F /  12.1 °C 30.10in /  1019.2hPa Calm   2mph /  3.2km/h 95% 0.00in /  0mm 0 W/m2
05:00 55.2 °F /  12.9 °C 54.1 °F /  12.3 °C 30.10in /  1019.2hPa Calm     96% 0.00in /  0mm 0 W/m2
05:10 55 °F /  12.8 °C 53.6 °F /  12 °C 30.11in /  1019.5hPa NW 1mph /  1.6km/h 2mph /  3.2km/h 95% 0.00in /  0mm 0 W/m2
05:20 55.2 °F /  12.9 °C 54.1 °F /  12.3 °C 30.11in /  1019.5hPa Calm   2mph /  3.2km/h 96% 0.00in /  0mm 6 W/m2
05:30 55.2 °F /  12.9 °C 54.1 °F /  12.3 °C 30.11in /  1019.5hPa Calm   2mph /  3.2km/h 96% 0.00in /  0mm 12 W/m2
05:40 55.2 °F /  12.9 °C 54.1 °F /  12.3 °C 30.11in /  1019.5hPa NW 1mph /  1.6km/h 4mph /  6.4km/h 96% 0.00in /  0mm 20 W/m2
05:50 54.9 °F /  12.7 °C 53.5 °F /  11.9 °C 30.11in /  1019.5hPa West 1mph /  1.6km/h 4mph /  6.4km/h 95% 0.00in /  0mm 30 W/m2
06:00 54.9 °F /  12.7 °C 53.7 °F /  12.1 °C 30.11in /  1019.5hPa WNW 1mph /  1.6km/h 4mph /  6.4km/h 96% 0.00in /  0mm 45 W/m2
06:10 54.7 °F /  12.6 °C 53.6 °F /  12 °C 30.12in /  1019.9hPa WSW 2mph /  3.2km/h 3mph /  4.8km/h 96% 0.00in /  0mm 67 W/m2
06:20 54.5 °F /  12.5 °C 53.4 °F /  11.9 °C 30.12in /  1019.9hPa West 1mph /  1.6km/h 4mph /  6.4km/h 96% 0.00in /  0mm 85 W/m2
06:30 54.5 °F /  12.5 °C 54 °F /  12.2 °C 30.12in /  1019.9hPa NW 2mph /  3.2km/h 5mph /  8km/h 98% 0.00in /  0mm 102 W/m2
06:40 55 °F /  12.8 °C 54.8 °F /  12.7 °C 30.12in /  1019.9hPa NW 2mph /  3.2km/h 4mph /  6.4km/h 99% 0.00in /  0mm 134 W/m2
06:50 55.2 °F /  12.9 °C 54.9 °F /  12.7 °C 30.12in /  1019.9hPa Calm   3mph /  4.8km/h 99% 0.00in /  0mm 114 W/m2
07:00 55.8 °F /  13.2 °C 55.5 °F /  13.1 °C 30.12in /  1019.9hPa West 1mph /  1.6km/h 2mph /  3.2km/h 99% 0.00in /  0mm 194 W/m2
07:10 56.1 °F /  13.4 °C 55.6 °F /  13.1 °C 30.12in /  1019.9hPa Calm   3mph /  4.8km/h 98% 0.00in /  0mm 228 W/m2
07:20 56.6 °F /  13.7 °C 56.3 °F /  13.5 °C 30.12in /  1019.9hPa West 1mph /  1.6km/h 3mph /  4.8km/h 99% 0.00in /  0mm 259 W/m2
07:30 57.3 °F /  14.1 °C 56.8 °F /  13.8 °C 30.12in /  1019.9hPa NW 2mph /  3.2km/h 4mph /  6.4km/h 98% 0.00in /  0mm 293 W/m2
07:40 58.1 °F /  14.5 °C 57.5 °F /  14.2 °C 30.12in /  1019.9hPa WNW 1mph /  1.6km/h 3mph /  4.8km/h 98% 0.00in /  0mm 325 W/m2
07:50 58.8 °F /  14.9 °C 58.2 °F /  14.6 °C 30.12in /  1019.9hPa West 2mph /  3.2km/h 3mph /  4.8km/h 98% 0.00in /  0mm 358 W/m2
08:00 59.7 °F /  15.4 °C 58.6 °F /  14.8 °C 30.12in /  1019.9hPa West 2mph /  3.2km/h 5mph /  8km/h 96% 0.00in /  0mm 394 W/m2
08:10 60.8 °F /  16 °C 59 °F /  15 °C 30.12in /  1019.9hPa West 1mph /  1.6km/h 5mph /  8km/h 94% 0.00in /  0mm 430 W/m2
08:20 61.5 °F /  16.4 °C 58.9 °F /  14.9 °C 30.12in /  1019.9hPa Calm   3mph /  4.8km/h 91% 0.00in /  0mm 465 W/m2
08:30 62.4 °F /  16.9 °C 59.4 °F /  15.2 °C 30.12in /  1019.9hPa WNW 1mph /  1.6km/h 3mph /  4.8km/h 90% 0.00in /  0mm 503 W/m2
08:40 63.3 °F /  17.4 °C 60 °F /  15.6 °C 30.12in /  1019.9hPa Calm   3mph /  4.8km/h 89% 0.00in /  0mm 553 W/m2
08:50 64.5 °F /  18.1 °C 60.9 °F /  16.1 °C 30.12in /  1019.9hPa NW 1mph /  1.6km/h 2mph /  3.2km/h 88% 0.00in /  0mm 586 W/m2
09:00 66 °F /  18.9 °C 61.7 °F /  16.5 °C 30.12in /  1019.9hPa West 1mph /  1.6km/h 3mph /  4.8km/h 86% 0.00in /  0mm 620 W/m2
09:10 68.5 °F /  20.3 °C 63.4 °F /  17.4 °C 30.12in /  1019.9hPa NNW 1mph /  1.6km/h 4mph /  6.4km/h 84% 0.00in /  0mm 650 W/m2
09:20 70.8 °F /  21.6 °C 64.4 °F /  18 °C 30.12in /  1019.9hPa NE 2mph /  3.2km/h 5mph /  8km/h 80% 0.00in /  0mm 676 W/m2
09:30 72.3 °F /  22.4 °C 65.4 °F /  18.6 °C 30.12in /  1019.9hPa NNE 1mph /  1.6km/h 7mph /  11.3km/h 79% 0.00in /  0mm 701 W/m2
09:40 73.9 °F /  23.3 °C 66.6 °F /  19.2 °C 30.11in /  1019.5hPa NNE 3mph /  4.8km/h 6mph /  9.7km/h 78% 0.00in /  0mm 726 W/m2
09:50 75.2 °F /  24 °C 66.3 °F /  19.1 °C 30.10in /  1019.2hPa NNE 2mph /  3.2km/h 6mph /  9.7km/h 74% 0.00in /  0mm 749 W/m2
10:00 76.3 °F /  24.6 °C 66.6 °F /  19.2 °C 30.11in /  1019.5hPa North 3mph /  4.8km/h 6mph /  9.7km/h 72% 0.00in /  0mm 771 W/m2
10:10 77.5 °F /  25.3 °C 67.7 °F /  19.8 °C 30.11in /  1019.5hPa North 1mph /  1.6km/h 5mph /  8km/h 72% 0.00in /  0mm 792 W/m2
10:20 78.8 °F /  26 °C 66.9 °F /  19.4 °C 30.10in /  1019.2hPa NNE 3mph /  4.8km/h 7mph /  11.3km/h 67% 0.00in /  0mm 812 W/m2
10:30 79.3 °F /  26.3 °C 66.5 °F /  19.2 °C 30.10in /  1019.2hPa NNE 3mph /  4.8km/h 6mph /  9.7km/h 65% 0.00in /  0mm 831 W/m2
10:40 80.4 °F /  26.9 °C 66.6 °F /  19.2 °C 30.10in /  1019.2hPa NE 5mph /  8km/h 10mph /  16.1km/h 63% 0.00in /  0mm 849 W/m2
10:50 81.3 °F /  27.4 °C 65.6 °F /  18.7 °C 30.10in /  1019.2hPa ESE 3mph /  4.8km/h 14mph /  22.5km/h 59% 0.00in /  0mm 200 W/m2
11:00 82 °F /  27.8 °C 65.8 °F /  18.8 °C 30.10in /  1019.2hPa ESE 6mph /  9.7km/h 13mph /  20.9km/h 58% 0.00in /  0mm 880 W/m2
11:10 82.7 °F /  28.2 °C 64.9 °F /  18.3 °C 30.10in /  1019.2hPa ESE 6mph /  9.7km/h 13mph /  20.9km/h 55% 0.00in /  0mm 893 W/m2
11:20 83.5 °F /  28.6 °C 65.6 °F /  18.7 °C 30.09in /  1018.8hPa ESE 7mph /  11.3km/h 15mph /  24.1km/h 55% 0.00in /  0mm 643 W/m2
11:30 84 °F /  28.9 °C 66.1 °F /  18.9 °C 30.09in /  1018.8hPa ESE 2mph /  3.2km/h 11mph /  17.7km/h 55% 0.00in /  0mm 916 W/m2
11:40 84.9 °F /  29.4 °C 68 °F /  20 °C 30.09in /  1018.8hPa SE 3mph /  4.8km/h 7mph /  11.3km/h 57% 0.00in /  0mm 925 W/m2
11:50 85.5 °F /  29.7 °C 66.9 °F /  19.4 °C 30.09in /  1018.8hPa SSE 2mph /  3.2km/h 7mph /  11.3km/h 54% 0.00in /  0mm 933 W/m2
12:00 85.8 °F /  29.9 °C 67.3 °F /  19.6 °C 30.08in /  1018.5hPa SE 3mph /  4.8km/h 9mph /  14.5km/h 54% 0.00in /  0mm 939 W/m2
12:10 86.2 °F /  30.1 °C 63.6 °F /  17.6 °C 30.08in /  1018.5hPa SE 5mph /  8km/h 9mph /  14.5km/h 47% 0.00in /  0mm 943 W/m2
12:20 86 °F /  30 °C 64.6 °F /  18.1 °C 30.08in /  1018.5hPa South 2mph /  3.2km/h 9mph /  14.5km/h 49% 0.00in /  0mm 946 W/m2
12:30 86.5 °F /  30.3 °C 65.1 °F /  18.4 °C 30.08in /  1018.5hPa South 5mph /  8km/h 9mph /  14.5km/h 49% 0.00in /  0mm 948 W/m2
12:40 86.5 °F /  30.3 °C 63.9 °F /  17.7 °C 30.08in /  1018.5hPa SSW 5mph /  8km/h 8mph /  12.9km/h 47% 0.00in /  0mm 948 W/m2
12:50 86.7 °F /  30.4 °C 64.7 °F /  18.2 °C 30.08in /  1018.5hPa SE 3mph /  4.8km/h 8mph /  12.9km/h 48% 0.00in /  0mm 946 W/m2
13:00 87.1 °F /  30.6 °C 65 °F /  18.3 °C 30.07in /  1018.2hPa SSE 1mph /  1.6km/h 6mph /  9.7km/h 48% 0.00in /  0mm 943 W/m2
13:10 87.4 °F /  30.8 °C 64.7 °F /  18.2 °C 30.07in /  1018.2hPa SSE 3mph /  4.8km/h 8mph /  12.9km/h 47% 0.00in /  0mm 463 W/m2
13:20 87.8 °F /  31 °C 63.8 °F /  17.7 °C 30.07in /  1018.2hPa SSW 3mph /  4.8km/h 7mph /  11.3km/h 45% 0.00in /  0mm 932 W/m2
13:30 88 °F /  31.1 °C 64 °F /  17.8 °C 30.06in /  1017.8hPa South 2mph /  3.2km/h 12mph /  19.3km/h 45% 0.00in /  0mm 925 W/m2
13:40 88 °F /  31.1 °C 64 °F /  17.8 °C 30.06in /  1017.8hPa South 1mph /  1.6km/h 8mph /  12.9km/h 45% 0.00in /  0mm 916 W/m2
13:50 88 °F /  31.1 °C 63.3 °F /  17.4 °C 30.06in /  1017.8hPa SSW 5mph /  8km/h 9mph /  14.5km/h 44% 0.00in /  0mm 905 W/m2
14:00 88.3 °F /  31.3 °C 63.6 °F /  17.6 °C 30.06in /  1017.8hPa South 5mph /  8km/h 7mph /  11.3km/h 44% 0.00in /  0mm 893 W/m2
14:10 88.3 °F /  31.3 °C 64.3 °F /  17.9 °C 30.06in /  1017.8hPa SSW 2mph /  3.2km/h 6mph /  9.7km/h 45% 0.00in /  0mm 879 W/m2
14:20 88.9 °F /  31.6 °C 66 °F /  18.9 °C 30.06in /  1017.8hPa SSE 2mph /  3.2km/h 6mph /  9.7km/h 47% 0.00in /  0mm 865 W/m2
14:30 89.2 °F /  31.8 °C 65.1 °F /  18.4 °C 30.06in /  1017.8hPa ESE 3mph /  4.8km/h 7mph /  11.3km/h 45% 0.00in /  0mm 848 W/m2
14:40 89.2 °F /  31.8 °C 64.5 °F /  18.1 °C 30.06in /  1017.8hPa South 3mph /  4.8km/h 7mph /  11.3km/h 44% 0.00in /  0mm 831 W/m2
14:50 89.2 °F /  31.8 °C 66.4 °F /  19.1 °C 30.06in /  1017.8hPa SE 1mph /  1.6km/h 10mph /  16.1km/h 47% 0.00in /  0mm 812 W/m2
15:00 89.1 °F /  31.7 °C 63.7 °F /  17.6 °C 30.05in /  1017.5hPa SSE 3mph /  4.8km/h 7mph /  11.3km/h 43% 0.00in /  0mm 792 W/m2
15:10 89.4 °F /  31.9 °C 64.6 °F /  18.1 °C 30.05in /  1017.5hPa SE 3mph /  4.8km/h 6mph /  9.7km/h 44% 0.00in /  0mm 771 W/m2
15:20 89.6 °F /  32 °C 63.5 °F /  17.5 °C 30.04in /  1017.2hPa SE 3mph /  4.8km/h 6mph /  9.7km/h 42% 0.00in /  0mm 749 W/m2
15:30 89.6 °F /  32 °C 65.4 °F /  18.6 °C 30.04in /  1017.2hPa SE 2mph /  3.2km/h 8mph /  12.9km/h 45% 0.00in /  0mm 725 W/m2
15:40 89.6 °F /  32 °C 62.1 °F /  16.7 °C 30.04in /  1017.2hPa SSE 2mph /  3.2km/h 6mph /  9.7km/h 40% 0.00in /  0mm 701 W/m2
15:50 89.8 °F /  32.1 °C 62.2 °F /  16.8 °C 30.04in /  1017.2hPa SSW 2mph /  3.2km/h 6mph /  9.7km/h 40% 0.00in /  0mm 675 W/m2
16:00 89.6 °F /  32 °C 62.1 °F /  16.7 °C 30.04in /  1017.2hPa SE 2mph /  3.2km/h 8mph /  12.9km/h 40% 0.00in /  0mm 649 W/m2
16:10 89.8 °F /  32.1 °C 61.5 °F /  16.4 °C 30.04in /  1017.2hPa SE 3mph /  4.8km/h 6mph /  9.7km/h 39% 0.00in /  0mm 622 W/m2
16:20 90 °F /  32.2 °C 62.4 °F /  16.9 °C 30.04in /  1017.2hPa SSW 2mph /  3.2km/h 6mph /  9.7km/h 40% 0.00in /  0mm 594 W/m2
16:30 90.1 °F /  32.3 °C 62.5 °F /  16.9 °C 30.04in /  1017.2hPa South 2mph /  3.2km/h 7mph /  11.3km/h 40% 0.00in /  0mm 562 W/m2
16:40 90.1 °F /  32.3 °C 62.5 °F /  16.9 °C 30.04in /  1017.2hPa Calm   5mph /  8km/h 40% 0.00in /  0mm 526 W/m2
16:50 90.1 °F /  32.3 °C 61.8 °F /  16.6 °C 30.04in /  1017.2hPa SSW 3mph /  4.8km/h 6mph /  9.7km/h 39% 0.00in /  0mm 492 W/m2
17:00 90 °F /  32.2 °C 60.9 °F /  16.1 °C 30.04in /  1017.2hPa South 3mph /  4.8km/h 5mph /  8km/h 38% 0.00in /  0mm 456 W/m2
17:10 90 °F /  32.2 °C 62.4 °F /  16.9 °C 30.04in /  1017.2hPa South 1mph /  1.6km/h 6mph /  9.7km/h 40% 0.00in /  0mm 418 W/m2
17:20 90 °F /  32.2 °C 65.1 °F /  18.4 °C 30.04in /  1017.2hPa ESE 1mph /  1.6km/h 5mph /  8km/h 44% 0.00in /  0mm 382 W/m2
17:30 90 °F /  32.2 °C 64.5 °F /  18.1 °C 30.04in /  1017.2hPa ENE 1mph /  1.6km/h 4mph /  6.4km/h 43% 0.00in /  0mm 347 W/m2
17:40 89.6 °F /  32 °C 64.8 °F /  18.2 °C 30.04in /  1017.2hPa South 1mph /  1.6km/h 6mph /  9.7km/h 44% 0.00in /  0mm 312 W/m2
17:50 89.8 °F /  32.1 °C 65.6 °F /  18.7 °C 30.04in /  1017.2hPa SSW 2mph /  3.2km/h 3mph /  4.8km/h 45% 0.00in /  0mm 277 W/m2
18:00 89.6 °F /  32 °C 66.7 °F /  19.3 °C 30.04in /  1017.2hPa SSW 2mph /  3.2km/h 3mph /  4.8km/h 47% 0.00in /  0mm 244 W/m2
18:10 89.4 °F /  31.9 °C 67.2 °F /  19.6 °C 30.04in /  1017.2hPa SSW 2mph /  3.2km/h 4mph /  6.4km/h 48% 0.00in /  0mm 212 W/m2
18:20 89.2 °F /  31.8 °C 67.6 °F /  19.8 °C 30.04in /  1017.2hPa SW 1mph /  1.6km/h 4mph /  6.4km/h 49% 0.00in /  0mm 174 W/m2
18:30 88.5 °F /  31.4 °C 67.5 °F /  19.7 °C 30.04in /  1017.2hPa SE 2mph /  3.2km/h 4mph /  6.4km/h 50% 0.00in /  0mm 112 W/m2
18:40 88 °F /  31.1 °C 69.2 °F /  20.7 °C 30.04in /  1017.2hPa East 3mph /  4.8km/h 7mph /  11.3km/h 54% 0.00in /  0mm 105 W/m2
18:50 87.3 °F /  30.7 °C 68.6 °F /  20.3 °C 30.04in /  1017.2hPa ENE 2mph /  3.2km/h 6mph /  9.7km/h 54% 0.00in /  0mm 88 W/m2
19:00 86.7 °F /  30.4 °C 70.7 °F /  21.5 °C 30.04in /  1017.2hPa NE 1mph /  1.6km/h 6mph /  9.7km/h 59% 0.00in /  0mm 71 W/m2
19:10 86 °F /  30 °C 70 °F /  21.1 °C 30.04in /  1017.2hPa Calm   3mph /  4.8km/h 59% 0.00in /  0mm 53 W/m2
19:20 85.1 °F /  29.5 °C 68.7 °F /  20.4 °C 30.04in /  1017.2hPa Calm   3mph /  4.8km/h 58% 0.00in /  0mm 42 W/m2
19:30 84 °F /  28.9 °C 68.2 °F /  20.1 °C 30.04in /  1017.2hPa NNE 1mph /  1.6km/h 3mph /  4.8km/h 59% 0.00in /  0mm 28 W/m2
19:40 83.1 °F /  28.4 °C 68.8 °F /  20.4 °C 30.05in /  1017.5hPa ENE 1mph /  1.6km/h 4mph /  6.4km/h 62% 0.00in /  0mm 18 W/m2
19:50 82 °F /  27.8 °C 69.1 °F /  20.6 °C 30.05in /  1017.5hPa South 1mph /  1.6km/h 3mph /  4.8km/h 65% 0.00in /  0mm 8 W/m2
20:00 81.1 °F /  27.3 °C 69.1 °F /  20.6 °C 30.05in /  1017.5hPa SW 1mph /  1.6km/h 3mph /  4.8km/h 67% 0.00in /  0mm 3 W/m2
20:10 80.1 °F /  26.7 °C 68.6 °F /  20.3 °C 30.05in /  1017.5hPa SW 1mph /  1.6km/h 3mph /  4.8km/h 68% 0.00in /  0mm 0 W/m2
20:20 79 °F /  26.1 °C 67.9 °F /  19.9 °C 30.06in /  1017.8hPa SW 2mph /  3.2km/h 4mph /  6.4km/h 69% 0.00in /  0mm 0 W/m2
20:30 77.7 °F /  25.4 °C 67.2 °F /  19.6 °C 30.06in /  1017.8hPa WSW 2mph /  3.2km/h 5mph /  8km/h 70% 0.00in /  0mm 0 W/m2
20:40 77 °F /  25 °C 67.3 °F /  19.6 °C 30.06in /  1017.8hPa SW 2mph /  3.2km/h 3mph /  4.8km/h 72% 0.00in /  0mm 0 W/m2
20:50 76.3 °F /  24.6 °C 67 °F /  19.4 °C 30.06in /  1017.8hPa SW 1mph /  1.6km/h 3mph /  4.8km/h 73% 0.00in /  0mm 0 W/m2
21:00 75.5 °F /  24.2 °C 66.7 °F /  19.3 °C 30.07in /  1018.2hPa WSW 2mph /  3.2km/h 4mph /  6.4km/h 74% 0.00in /  0mm 0 W/m2
21:10 75 °F /  23.9 °C 66.2 °F /  19 °C 30.07in /  1018.2hPa West 1mph /  1.6km/h 5mph /  8km/h 74% 0.00in /  0mm 0 W/m2
21:20 74.3 °F /  23.5 °C 65.9 °F /  18.8 °C 30.08in /  1018.5hPa SW 2mph /  3.2km/h 3mph /  4.8km/h 75% 0.00in /  0mm 0 W/m2
21:30 73.6 °F /  23.1 °C 65.9 °F /  18.8 °C 30.08in /  1018.5hPa WSW 2mph /  3.2km/h 4mph /  6.4km/h 77% 0.00in /  0mm 0 W/m2
21:40 73 °F /  22.8 °C 65.8 °F /  18.8 °C 30.08in /  1018.5hPa SW 2mph /  3.2km/h 3mph /  4.8km/h 78% 0.00in /  0mm 0 W/m2
21:50 72.5 °F /  22.5 °C 65.2 °F /  18.4 °C 30.08in /  1018.5hPa SW 2mph /  3.2km/h 3mph /  4.8km/h 78% 0.00in /  0mm 0 W/m2
22:00 72 °F /  22.2 °C 65.1 °F /  18.4 °C 30.09in /  1018.8hPa SW 2mph /  3.2km/h 3mph /  4.8km/h 79% 0.00in /  0mm 0 W/m2
22:10 71.4 °F /  21.9 °C 64.9 °F /  18.3 °C 30.09in /  1018.8hPa WSW 1mph /  1.6km/h 3mph /  4.8km/h 80% 0.00in /  0mm 0 W/m2
22:20 70.9 °F /  21.6 °C 64.4 °F /  18 °C 30.09in /  1018.8hPa Calm   2mph /  3.2km/h 80% 0.00in /  0mm 0 W/m2
22:30 70.5 °F /  21.4 °C 64 °F /  17.8 °C 30.09in /  1018.8hPa Calm   2mph /  3.2km/h 80% 0.00in /  0mm 0 W/m2
22:40 70 °F /  21.1 °C 63.9 °F /  17.7 °C 30.09in /  1018.8hPa SSW 2mph /  3.2km/h 4mph /  6.4km/h 81% 0.00in /  0mm 0 W/m2
22:50 69.6 °F /  20.9 °C 63.5 °F /  17.5 °C 30.09in /  1018.8hPa South 1mph /  1.6km/h 4mph /  6.4km/h 81% 0.00in /  0mm 0 W/m2
23:00 69.1 °F /  20.6 °C 63 °F /  17.2 °C 30.10in /  1019.2hPa SW 2mph /  3.2km/h 3mph /  4.8km/h 81% 0.00in /  0mm 0 W/m2
23:10 68.7 °F /  20.4 °C 62.7 °F /  17.1 °C 30.10in /  1019.2hPa SSW 1mph /  1.6km/h 4mph /  6.4km/h 81% 0.00in /  0mm 0 W/m2
23:20 68.5 °F /  20.3 °C 63.2 °F /  17.3 °C 30.09in /  1018.8hPa Calm   2mph /  3.2km/h 83% 0.00in /  0mm 0 W/m2
23:30 68.4 °F /  20.2 °C 63 °F /  17.2 °C 30.09in /  1018.8hPa ENE 2mph /  3.2km/h 3mph /  4.8km/h 83% 0.00in /  0mm 0 W/m2
23:40 68 °F /  20 °C 62.6 °F /  17 °C 30.10in /  1019.2hPa Calm   3mph /  4.8km/h 83% 0.00in /  0mm 0 W/m2
23:50 67.6 °F /  19.8 °C 62.6 °F /  17 °C 30.10in /  1019.2hPa Calm   2mph /  3.2km/h 84% 0.00in /  0mm 0 W/m2
Knjazevac, Serbia
Compliments of Weather Underground - 2 mb